Muskoka Falls, Canada
Current Conditions -  °F | °C
As of 3:00 PM on Friday 31 Oct 2014 (Local Time) from CYQA Reporting Station
Light Rain Light Rain  
Wind Chill: 31°   Ceiling: 700
Heat Index: 36°   Visibility: 6mi
Dew Point: 36°   Wind: 6mph
Humidity: 100%   Direction: 50°NE
Pressure: 29.95"   Gusts: NA
Location:  45°N, 79.3°W
Report Text: CYQA 311900Z AUTO 05005KT 020V090 6SM -RA BR BKN007 OVC014 02/02 A2995 RMK PCPN 0.8MM PAST HR SLP153
Loading
Personal Weather Stations






























Interactive Weather Map
Tropical Storm Tracking
New forecast layout! Learn more

10-Day Weather Forecast

Advertisements
Track Severe Weather on mobile